Last 7 Days

Abernathy 1

Hourly Data | America/Los_Angeles
as of 4/23/24 9:02 PM PDT
Date & Time Temp (°F) RH (%) Dew Pt (°F) Wind Spd (mph) Wind Dir (°) Wind Gust (mph) Wind Gst Dir (°) Latest Rain (In) Daily Rain (In) Daily Min Temp (°F) Daily Max Temp (°F)
4/23/24 - 2100 57.3 65 45.6 5.1 WSW | 254 10.7 WSW | 254 0.00 0.00 54.0 66.4
4/23/24 - 2000 58.4 63 45.7 7.5 W | 261 16.5 W | 260 0.00 0.00 54.0 66.4
4/23/24 - 1900 59.4 59 45.2 9.8 W | 262 18.8 WSW | 241 0.00 0.00 54.0 66.4
4/23/24 - 1800 61.1 59 46.5 10.3 W | 259 20.2 W | 270 0.00 0.00 54.0 66.4
4/23/24 - 1700 62.4 57 46.9 12.2 W | 260 19.8 W | 268 0.00 0.00 54.0 66.4
4/23/24 - 1600 65.0 53 47.4 11.7 WSW | 257 19.8 W | 259 0.00 0.00 54.0 66.4
4/23/24 - 1500 65.2 52 47.4 12.0 W | 261 21.4 W | 264 0.00 0.00 54.0 66.4
4/23/24 - 1400 65.1 52 47.3 11.2 WSW | 253 20.0 W | 265 0.00 0.00 54.0 66.4
4/23/24 - 1300 62.8 55 46.6 10.7 WSW | 258 18.6 WSW | 257 0.00 0.00 54.0 64.6
4/23/24 - 1200 62.6 56 46.6 10.8 WSW | 250 20.6 WSW | 241 0.00 0.00 54.0 64.6
4/23/24 - 1100 60.3 60 46.3 10.7 WSW | 249 18.0 SW | 234 0.00 0.00 54.0 61.5
4/23/24 - 1000 59.2 62 46.3 10.4 WSW | 249 17.7 WSW | 249 0.00 0.00 54.0 60.4
4/23/24 - 0900 57.4 67 46.8 9.0 WSW | 256 15.6 WSW | 254 0.00 0.00 54.0 58.1
4/23/24 - 0800 56.2 71 46.8 9.2 WSW | 257 16.4 WSW | 245 0.00 0.00 54.0 56.8
4/23/24 - 0700 55.1 73 46.5 7.6 W | 261 17.0 WNW | 289 0.00 0.00 54.0 55.5
4/23/24 - 0600 55.0 72 46.3 7.5 W | 271 15.1 WSW | 256 0.00 0.00 54.0 55.1
4/23/24 - 0500 54.9 73 46.3 7.3 W | 278 17.2 W | 265 0.00 0.00 54.0 55.0
4/23/24 - 0400 54.7 73 46.2 7.8 W | 277 17.0 WNW | 291 0.00 0.00 54.0 54.9
4/23/24 - 0300 54.4 74 46.2 7.9 W | 278 15.9 NW | 315 0.00 0.00 54.0 54.6
4/23/24 - 0200 54.2 74 46.0 8.6 W | 277 15.6 WNW | 295 0.00 0.00 54.1 54.4
4/23/24 - 0100 54.3 73 46.0 7.8 W | 277 14.8 W | 268 0.00 0.00 53.3 81.2
4/23/24 - 0000 54.5 74 46.3 7.9 W | 274 16.8 WNW | 301 0.00 0.00 53.3 81.2
4/22/24 - 2300 54.7 75 46.8 7.5 W | 265 17.2 WSW | 249 0.00 0.00 53.3 81.2
4/22/24 - 2200 55.7 75 47.8 8.3 W | 262 17.9 WSW | 242 0.00 0.00 53.3 81.2
4/22/24 - 2100 57.1 72 48.3 9.6 W | 262 20.1 W | 271 0.00 0.00 53.3 81.2
4/22/24 - 2000 59.6 68 48.9 9.8 W | 264 22.0 W | 266 0.00 0.00 53.3 81.2
4/22/24 - 1900 63.6 61 49.8 10.6 W | 263 21.0 W | 268 0.00 0.00 53.3 81.2
4/22/24 - 1800 68.5 56 52.1 12.4 WSW | 256 20.6 WSW | 249 0.00 0.00 53.3 81.2
4/22/24 - 1700 71.0 54 53.7 13.2 WSW | 256 22.3 W | 265 0.00 0.00 53.3 81.2
4/22/24 - 1600 74.5 50 54.4 14.1 WSW | 252 23.3 WSW | 254 0.00 0.00 53.3 81.2
4/22/24 - 1500 78.3 46 56.0 10.3 WSW | 249 16.6 WSW | 257 0.00 0.00 53.3 81.2
4/22/24 - 1400 80.6 43 56.2 7.4 WSW | 249 13.3 WSW | 240 0.00 0.00 53.3 81.2
4/22/24 - 1300 80.4 43 56.1 4.3 SW | 233 9.5 W | 271 0.00 0.00 53.3 81.2
4/22/24 - 1200 78.3 47 56.7 4.0 SW | 230 8.5 SW | 219 0.00 0.00 53.3 79.5
4/22/24 - 1100 76.1 51 56.7 3.4 SSW | 206 9.1 W | 260 0.00 0.00 53.3 78.0
4/22/24 - 1000 72.3 58 56.5 2.1 WSW | 250 6.0 SW | 218 0.00 0.00 53.3 75.3
4/22/24 - 0900 66.5 68 55.8 1.7 WNW | 301 4.2 WNW | 285 0.00 0.00 53.3 69.3
4/22/24 - 0800 58.4 83 53.3 0.9 WNW | 300 3.0 WNW | 297 0.00 0.00 53.3 63.4
4/22/24 - 0700 53.8 86 49.6 1.2 NW | 326 3.9 WSW | 246 0.00 0.00 53.3 58.5
4/22/24 - 0600 54.5 85 50.2 2.6 W | 264 4.8 WSW | 251 0.00 0.00 53.7 58.5
4/22/24 - 0500 54.8 84 50.1 2.8 W | 262 4.3 WSW | 252 0.00 0.00 53.7 58.5
4/22/24 - 0400 55.3 84 50.5 3.4 W | 260 6.1 WSW | 247 0.00 0.00 54.9 58.5
4/22/24 - 0300 56.6 82 51.0 2.3 W | 270 3.5 WSW | 248 0.00 0.00 55.5 58.5
4/22/24 - 0200 57.8 81 52.0 2.0 W | 279 4.2 NW | 305 0.00 0.00 56.9 58.5
4/22/24 - 0100 59.3 78 52.5 2.0 W | 280 4.1 WSW | 254 0.00 0.00 54.2 84.1
4/22/24 - 0000 62.3 74 53.9 1.9 WNW | 294 4.1 W | 259 0.00 0.00 54.2 84.1
4/21/24 - 2300 63.8 70 53.8 2.1 W | 272 4.3 W | 269 0.00 0.00 54.2 84.1
4/21/24 - 2200 66.8 64 54.0 2.8 W | 271 5.2 WSW | 251 0.00 0.00 54.2 84.1
4/21/24 - 2100 69.5 57 53.6 3.6 W | 264 6.8 WSW | 257 0.00 0.00 54.2 84.1
4/21/24 - 2000 74.5 46 52.1 5.4 WSW | 249 10.4 WSW | 246 0.00 0.00 54.2 84.1
4/21/24 - 1900 80.6 36 51.5 6.0 WSW | 255 11.3 WSW | 246 0.00 0.00 54.2 84.1
4/21/24 - 1800 82.8 36 53.3 4.9 SW | 234 8.3 WSW | 257 0.00 0.00 54.2 84.1
4/21/24 - 1700 83.4 39 55.7 5.2 WSW | 245 10.3 W | 263 0.00 0.00 54.2 84.1
4/21/24 - 1600 83.0 41 56.9 4.4 SW | 228 10.0 W | 272 0.00 0.00 54.2 83.9
4/21/24 - 1500 82.4 40 55.4 3.9 SW | 236 13.5 NNW | 332 0.00 0.00 54.2 83.0
4/21/24 - 1400 80.4 41 54.5 3.5 SW | 235 8.9 W | 277 0.00 0.00 54.2 82.1
4/21/24 - 1300 77.5 44 53.7 3.6 SSW | 203 8.9 WNW | 288 0.00 0.00 54.2 79.3
4/21/24 - 1200 74.6 46 52.4 4.0 SW | 231 8.5 SW | 219 0.00 0.00 54.2 76.7
4/21/24 - 1100 70.7 50 51.2 5.5 WSW | 245 9.7 SW | 233 0.00 0.00 54.2 72.9
4/21/24 - 1000 66.7 57 51.2 5.9 WSW | 242 9.3 SW | 236 0.00 0.00 54.2 68.7
4/21/24 - 0900 62.9 65 50.8 6.0 WSW | 244 9.5 WSW | 248 0.00 0.00 54.2 65.2
4/21/24 - 0800 57.6 74 49.3 6.8 WSW | 242 10.4 WSW | 242 0.00 0.00 54.2 60.2
4/21/24 - 0700 54.6 78 47.9 5.9 WSW | 240 10.4 WSW | 251 0.00 0.00 54.2 59.0
4/21/24 - 0600 55.1 77 48.1 6.4 WSW | 239 9.9 SW | 233 0.00 0.00 54.7 59.0
4/21/24 - 0500 55.6 74 47.3 6.6 WSW | 246 10.2 WSW | 247 0.00 0.00 55.4 59.0
4/21/24 - 0400 56.3 69 46.5 6.4 WSW | 247 11.1 WSW | 237 0.00 0.00 55.4 59.0
4/21/24 - 0300 56.6 69 46.7 6.6 WSW | 246 12.9 W | 261 0.00 0.00 56.1 59.0
4/21/24 - 0200 57.9 61 44.2 8.4 WSW | 250 14.2 WSW | 237 0.00 0.00 56.9 59.0
4/21/24 - 0100 59.3 49 40.1 7.3 WSW | 252 13.2 W | 260 0.00 0.00 47.5 76.1
4/21/24 - 0000 59.7 49 40.8 7.5 WSW | 247 12.9 WSW | 239 0.00 0.00 47.5 76.1
4/20/24 - 2300 60.4 48 40.6 7.3 WSW | 241 12.7 WSW | 244 0.00 0.00 47.5 76.1
4/20/24 - 2200 60.6 45 39.3 7.6 WSW | 246 14.8 WSW | 248 0.00 0.00 47.5 76.1
4/20/24 - 2100 62.5 37 36.2 9.4 WSW | 243 14.1 WSW | 244 0.00 0.00 47.5 76.1
4/20/24 - 2000 66.2 30 33.8 7.9 W | 265 14.5 W | 266 0.00 0.00 47.5 76.1
4/20/24 - 1900 70.7 29 36.9 7.8 W | 266 16.8 WSW | 239 0.00 0.00 47.5 76.1
4/20/24 - 1800 73.6 29 39.5 10.5 WSW | 255 17.8 WSW | 255 0.00 0.00 47.5 76.1
4/20/24 - 1700 74.9 35 45.0 11.1 WSW | 256 20.0 WSW | 249 0.00 0.00 47.5 76.1
4/20/24 - 1600 75.4 42 50.5 11.6 WSW | 254 19.8 WSW | 238 0.00 0.00 47.5 76.1
4/20/24 - 1500 75.3 47 53.7 10.5 WSW | 258 18.9 WSW | 255 0.00 0.00 47.5 76.1
4/20/24 - 1400 74.7 47 53.1 9.9 WSW | 258 16.6 WSW | 240 0.00 0.00 47.5 75.9
4/20/24 - 1300 71.0 51 51.8 11.0 WSW | 244 16.3 WSW | 246 0.00 0.00 47.5 73.4
4/20/24 - 1200 66.1 57 50.2 11.9 WSW | 246 17.8 WSW | 239 0.00 0.00 47.5 68.1
4/20/24 - 1100 62.5 61 49.1 10.7 WSW | 247 18.4 WSW | 255 0.00 0.00 47.5 64.6
4/20/24 - 1000 58.8 67 47.8 10.9 WSW | 253 18.1 W | 261 0.00 0.00 47.5 60.3
4/20/24 - 0900 53.2 79 46.9 9.3 WSW | 250 15.0 W | 259 0.00 0.00 47.5 56.6
4/20/24 - 0800 48.8 88 45.5 9.2 WSW | 244 17.4 W | 264 0.00 0.00 47.5 52.2
4/20/24 - 0700 47.7 89 44.6 6.8 SW | 232 12.9 WSW | 248 0.00 0.00 47.5 52.2
4/20/24 - 0600 47.9 90 45.1 8.0 WSW | 241 17.8 WSW | 257 0.00 0.00 47.7 52.2
4/20/24 - 0500 48.1 90 45.4 10.9 WSW | 241 19.7 WSW | 257 0.00 0.00 47.8 52.2
4/20/24 - 0400 48.9 88 45.6 9.9 WSW | 241 17.6 WSW | 244 0.00 0.00 48.5 52.2
4/20/24 - 0300 50.4 85 46.1 8.2 SW | 235 18.6 WSW | 244 0.00 0.00 49.6 52.2
4/20/24 - 0200 51.9 83 46.8 8.8 WSW | 237 17.7 WSW | 242 0.00 0.00 51.4 52.2
4/20/24 - 0100 53.1 80 47.1 10.8 WSW | 243 17.1 SW | 231 0.00 0.00 49.9 73.4
4/20/24 - 0000 55.4 74 47.3 11.3 WSW | 241 17.9 WSW | 243 0.00 0.00 49.9 73.4
4/19/24 - 2300 56.9 70 47.2 8.8 WSW | 241 14.8 WSW | 252 0.00 0.00 49.9 73.4
4/19/24 - 2200 58.5 66 47.2 7.2 WSW | 240 14.3 WSW | 239 0.00 0.00 49.9 73.4
4/19/24 - 2100 60.3 60 46.6 8.7 WSW | 253 15.6 W | 261 0.00 0.00 49.9 73.4
4/19/24 - 2000 62.0 65 50.3 9.2 WSW | 258 16.3 W | 260 0.00 0.00 49.9 73.4
4/19/24 - 1900 66.0 62 52.8 11.0 W | 262 19.0 W | 261 0.00 0.00 49.9 73.4
4/19/24 - 1800 69.1 59 54.4 12.3 W | 259 19.6 WSW | 255 0.00 0.00 49.9 73.4
4/19/24 - 1700 71.2 57 55.5 12.2 WSW | 251 19.2 WSW | 247 0.00 0.00 49.9 73.4
4/19/24 - 1600 72.6 55 55.8 11.6 WSW | 248 17.9 WSW | 257 0.00 0.00 49.9 73.4
4/19/24 - 1500 71.2 56 54.9 11.6 WSW | 243 18.0 WSW | 242 0.00 0.00 49.9 72.2
4/19/24 - 1400 69.0 59 53.9 12.1 WSW | 247 18.5 WSW | 250 0.00 0.00 49.9 70.8
4/19/24 - 1300 65.6 62 52.2 12.0 WSW | 247 18.7 WSW | 248 0.00 0.00 49.9 67.6
4/19/24 - 1200 62.8 66 51.1 12.8 WSW | 251 19.5 SW | 227 0.00 0.00 49.9 63.7
4/19/24 - 1100 60.2 70 50.4 11.9 WSW | 250 20.6 SW | 235 0.00 0.00 49.9 61.9
4/19/24 - 1000 57.6 74 49.4 11.6 WSW | 246 18.1 WSW | 245 0.00 0.00 49.9 58.8
4/19/24 - 0900 55.1 79 48.5 10.7 WSW | 244 16.9 WSW | 243 0.00 0.00 49.9 56.8
4/19/24 - 0800 51.9 84 47.2 10.0 WSW | 244 16.2 WSW | 238 0.00 0.00 49.9 55.1
4/19/24 - 0700 50.1 87 46.2 9.2 WSW | 241 14.2 WSW | 245 0.00 0.00 49.9 55.1
4/19/24 - 0600 50.3 86 46.3 8.9 WSW | 246 14.2 WSW | 248 0.00 0.00 50.0 55.1
4/19/24 - 0500 51.4 85 47.2 8.2 WSW | 247 14.5 W | 260 0.00 0.00 51.0 55.1
4/19/24 - 0400 52.1 86 47.9 11.2 WSW | 245 18.8 WSW | 248 0.00 0.00 51.7 55.1
4/19/24 - 0300 53.2 83 48.3 10.4 WSW | 246 18.2 WSW | 248 0.00 0.00 52.6 55.1
4/19/24 - 0200 54.5 80 48.6 8.6 WSW | 242 15.2 WSW | 253 0.00 0.00 53.8 55.1
4/19/24 - 0100 55.6 78 48.9 8.9 WSW | 242 15.6 WSW | 251 0.00 0.00 48.1 81.4
4/19/24 - 0000 56.3 76 48.9 7.9 WSW | 245 12.8 WSW | 243 0.00 0.00 48.1 81.4
4/18/24 - 2300 57.1 73 48.6 8.3 WSW | 240 13.3 WSW | 251 0.00 0.00 48.1 81.4
4/18/24 - 2200 59.1 69 48.8 8.2 WSW | 248 13.7 WSW | 253 0.00 0.00 48.1 81.4
4/18/24 - 2100 61.2 64 49.0 8.4 WSW | 242 13.8 WSW | 242 0.00 0.00 48.1 81.4
4/18/24 - 2000 64.8 57 49.3 6.9 WSW | 246 10.7 WSW | 238 0.00 0.00 48.1 81.4
4/18/24 - 1900 71.4 44 48.6 7.7 WSW | 251 13.8 WSW | 255 0.00 0.00 48.1 81.4
4/18/24 - 1800 75.5 43 51.2 8.4 WSW | 254 13.4 WSW | 253 0.00 0.00 48.1 81.4
4/18/24 - 1700 77.2 39 50.6 9.1 WSW | 258 15.3 WSW | 258 0.00 0.00 48.1 81.4
4/18/24 - 1600 79.4 36 49.8 6.8 WSW | 255 14.2 SW | 234 0.00 0.00 48.1 81.4
4/18/24 - 1500 79.6 30 45.4 4.4 SW | 217 9.2 SW | 228 0.00 0.00 48.1 80.8
4/18/24 - 1400 79.7 30 45.4 3.5 W | 272 8.5 SW | 226 0.00 0.00 48.1 80.8
4/18/24 - 1300 77.4 33 45.8 3.1 SW | 218 14.4 S | 185 0.00 0.00 48.1 78.5
4/18/24 - 1200 74.3 40 48.7 3.6 SW | 223 7.7 SW | 222 0.00 0.00 48.1 75.8
4/18/24 - 1100 71.2 47 49.8 2.8 S | 183 7.1 WSW | 255 0.00 0.00 48.1 73.1
4/18/24 - 1000 67.5 61 53.6 2.8 S | 178 6.4 SE | 143 0.00 0.00 48.1 69.4
4/18/24 - 0900 62.2 75 54.1 1.4 SE | 130 3.7 SSW | 206 0.00 0.00 48.1 66.0
4/18/24 - 0800 53.9 88 50.5 0.7 WNW | 295 2.4 WNW | 289 0.00 0.00 48.1 57.2
4/18/24 - 0700 48.8 89 45.8 0.8 W | 279 2.0 W | 267 0.00 0.00 48.1 55.0
4/18/24 - 0600 49.3 88 46.0 0.9 NNW | 344 2.9 NNW | 336 0.00 0.00 48.4 55.0
4/18/24 - 0500 51.7 86 47.8 1.4 WNW | 300 5.2 ENE | 60 0.00 0.00 50.1 55.0
4/18/24 - 0400 53.1 87 49.2 2.5 W | 271 3.9 W | 268 0.00 0.00 52.6 55.0
4/18/24 - 0300 53.4 86 49.3 2.0 W | 278 4.6 W | 278 0.00 0.00 52.8 55.0
4/18/24 - 0200 54.6 85 50.2 1.9 WNW | 283 4.4 W | 269 0.00 0.00 54.0 55.0
4/18/24 - 0100 55.7 83 50.7 0.8 NW | 310 3.4 W | 278 0.00 0.00 48.1 79.2
4/18/24 - 0000 57.6 81 51.8 1.8 WNW | 289 4.2 WNW | 290 0.00 0.00 48.1 79.2
4/17/24 - 2300 58.8 79 52.2 1.6 WNW | 286 3.2 WNW | 298 0.00 0.00 48.1 79.2
4/17/24 - 2200 62.1 73 53.2 1.9 WNW | 299 4.3 NNW | 327 0.00 0.00 48.1 79.2
4/17/24 - 2100 66.7 63 53.5 2.6 WNW | 282 5.5 WSW | 248 0.00 0.00 48.1 79.2
4/17/24 - 2000 73.8 44 50.7 2.4 SW | 224 5.1 WSW | 240 0.00 0.00 48.1 79.2
4/17/24 - 1900 77.7 38 49.9 2.8 SW | 215 7.1 SW | 219 0.00 0.00 48.1 79.2
4/17/24 - 1800 78.3 36 49.5 3.4 SW | 214 7.5 SW | 236 0.00 0.00 48.1 79.2
4/17/24 - 1700 77.7 36 48.6 3.5 SSE | 162 8.2 SW | 224 0.00 0.00 48.1 79.0
4/17/24 - 1600 77.9 35 48.3 3.3 SE | 143 8.2 SSE | 147 0.00 0.00 48.1 79.0
4/17/24 - 1500 76.7 37 48.2 4.3 ENE | 68 10.3 NE | 50 0.00 0.00 48.1 78.1
4/17/24 - 1400 75.0 43 51.2 5.3 ENE | 67 10.0 ENE | 58 0.00 0.00 48.1 76.3
4/17/24 - 1300 72.9 51 53.5 6.0 ENE | 66 10.8 ENE | 71 0.00 0.00 48.1 74.0
4/17/24 - 1200 71.6 52 53.1 6.6 ENE | 59 11.7 NE | 45 0.00 0.00 48.1 72.4
4/17/24 - 1100 69.9 57 54.1 3.9 NE | 49 10.3 ENE | 67 0.00 0.00 48.1 71.3
4/17/24 - 1000 65.2 67 53.9 1.5 SSW | 213 5.7 SSW | 208 0.00 0.00 48.1 68.1
4/17/24 - 0900 57.8 82 52.4 0.9 NNE | 16 3.3 WSW | 238 0.00 0.00 48.1 62.5
4/17/24 - 0800 50.7 90 47.8 1.1 NW | 321 2.8 N | 355 0.00 0.00 48.1 56.3
4/17/24 - 0700 48.7 89 45.8 1.6 NNE | 31 2.9 W | 273 0.00 0.00 48.1 56.3
4/17/24 - 0600 48.8 88 45.4 0.8 WNW | 283 2.8 WSW | 240 0.00 0.00 48.1 56.3
4/17/24 - 0500 49.9 87 46.1 0.6 NW | 323 2.0 W | 276 0.00 0.00 49.3 56.3
4/17/24 - 0400 52.1 84 47.4 1.5 N | 350 4.6 W | 263 0.00 0.00 50.6 56.3
4/17/24 - 0300 53.7 83 48.5 2.3 WSW | 256 5.0 WSW | 256 0.00 0.00 52.8 56.3
4/17/24 - 0200 54.7 80 48.7 1.9 W | 262 5.5 WSW | 247 0.00 0.00 53.6 56.3
4/17/24 - 0100 56.0 78 49.3 2.2 WSW | 253 5.7 WSW | 249 0.00 0.00 42.8 77.3
4/17/24 - 0000 56.9 77 49.9 1.4 W | 281 3.2 W | 262 0.00 0.00 42.8 77.3
4/16/24 - 2300 58.8 73 50.1 1.7 W | 279 4.2 WSW | 248 0.00 0.00 42.8 77.3
4/16/24 - 2200 61.5 68 51.0 4.5 WSW | 253 6.9 W | 262 0.00 0.00 42.8 77.3
Max 83.4 90 56.9 14.1 - 23.3 - 0.00 0.00 56.9 84.1
Avg 62.8 64 49.2 6.6 - 12.3 - 0.00 - - -
Min 47.7 29 33.8 0.6 - 2.0 - 0.00 0.00 42.8 52.2
Total - - - - - - - 0.00 - - -
Tip: Bookmark this page for easy future reference